Sedna Desgagnes — CYQE — position and weather

sailwx.info

Track history (hours):
 
Tides and Currents Weather Stations Pressure Air Temp Water Temp Dewpoint Dewpoint Depression Visibility Wind Speed Wind Dir Waves Ship Positions

Sedna Desgagnes

Last reported at 2015-Sep-03 07:32 UTC. Time now 2015-Sep-04 21:09 UTC.
Position N 62°59' W 055°00'.

Length 139 m; draft 6.8 m.

Type: Ship. MMSI: 316015251.

Date/timePositionNaut miles runAvg speedWind from/ knotsBaromVisibWave heightAir tempDewpointWater temp
2015-Sep-03 07:32N 62°59' W 055°00'1414.0
2015-Sep-03 06:32N 63°13' W 054°58'1313.1
2015-Sep-03 05:33N 63°26' W 054°60'1414.0
2015-Sep-03 04:33N 63°40' W 055°01'1414.2
2015-Sep-03 03:33N 63°54' W 055°00'1413.8
2015-Sep-03 02:33N 64°08' W 055°03'1313.2
2015-Sep-03 01:33N 64°21' W 055°01'1413.6
2015-Sep-03 00:34N 64°34' W 055°01'1713.4
2015-Sep-02 23:19N 64°51' W 054°59'  
Track history (hours):
 
Tides and Currents Weather Stations Pressure Air Temp Water Temp Dewpoint Dewpoint Depression Visibility Wind Speed Wind Dir Waves Ship Positions

Sedna Desgagnes

Last reported at 2015-Sep-03 07:32 UTC. Time now 2015-Sep-04 21:09 UTC.
Position N 62°59' W 055°00'.

Length 139 m; draft 6.8 m.

Type: Ship. MMSI: 316015251.

Date/timePositionNaut miles runAvg speedWind from/ knotsBaromVisibWave heightAir tempDewpointWater temp
2015-Sep-03 07:32N 62°59' W 055°00'1414.0
2015-Sep-03 06:32N 63°13' W 054°58'1313.1
2015-Sep-03 05:33N 63°26' W 054°60'1414.0
2015-Sep-03 04:33N 63°40' W 055°01'1414.2
2015-Sep-03 03:33N 63°54' W 055°00'1413.8
2015-Sep-03 02:33N 64°08' W 055°03'1313.2
2015-Sep-03 01:33N 64°21' W 055°01'1413.6
2015-Sep-03 00:34N 64°34' W 055°01'1713.4
2015-Sep-02 23:19N 64°51' W 054°59'  

Dump ship's entire track history